WSSL/XSP METAR and TAF weather

Enter ICAO airport designator
Station Type Date Time Source
WSSL METAR 2021/09/23 17:00 UTC NOAA

WSSL 231700Z 14004KT 110V180 9999 FEW018 BKN300 28/24 Q1010


Station Type Date Time Source
WSSL Decoded METAR 2021/09/23 17:00 UTC NOAA

Station name not available
Sep 23, 2021 - 01:00 PM EDT / 2021.09.23 1700 UTC
Wind: from the SE (140 degrees) at 5 MPH (4 KT) (direction variable):0
Visibility: greater than 7 mile(s):0
Sky conditions: mostly cloudy
Temperature: 82 F (28 C)
Dew Point: 75 F (24 C)
Relative Humidity: 78%
Pressure (altimeter): 29.83 in. Hg (1010 hPa)
ob: WSSL 231700Z 14004KT 110V180 9999 FEW018 BKN300 28/24 Q1010
cycle: 17

Station Type Date Time Source
WSSL TAF 2021/09/23 18:00 UTC NOAA

TAF WSSL 231700Z 2318/2500 17009KT 9999 FEW015 SCT020
TEMPO 2405/2408 3000 TSRA FEW012CB BKN015

Example: see airport list